createdAt,value
2022-08-27T00:00:08.970Z,30.00
2022-08-27T00:01:09.029Z,29.70
2022-08-27T00:02:08.987Z,30.20
2022-08-27T00:03:08.963Z,31.90
2022-08-27T00:04:09.003Z,32.90
2022-08-27T00:05:08.960Z,32.60
2022-08-27T00:06:08.956Z,33.70
2022-08-27T00:07:08.953Z,34.60
2022-08-27T00:08:09.213Z,33.40
2022-08-27T00:09:08.953Z,31.30
2022-08-27T00:10:08.948Z,31.70
2022-08-27T00:11:08.946Z,32.30
2022-08-27T00:12:08.950Z,32.70
2022-08-27T00:13:08.945Z,34.40
2022-08-27T00:14:08.941Z,34.50
2022-08-27T00:15:08.951Z,35.10
2022-08-27T00:16:08.961Z,35.50
2022-08-27T00:17:08.935Z,35.10
2022-08-27T00:18:09.131Z,35.30
2022-08-27T00:19:08.931Z,36.70
2022-08-27T00:20:08.929Z,37.70
2022-08-27T00:21:08.928Z,39.40
2022-08-27T00:22:08.926Z,38.50
2022-08-27T00:23:08.922Z,37.90
2022-08-27T00:24:08.940Z,38.80
2022-08-27T00:25:08.921Z,38.20
2022-08-27T00:26:08.918Z,35.00
2022-08-27T00:27:08.916Z,35.10
2022-08-27T00:28:09.044Z,35.30
2022-08-27T00:29:08.914Z,36.10
2022-08-27T00:30:08.909Z,37.40
2022-08-27T00:31:08.907Z,36.00
2022-08-27T00:32:08.981Z,35.00
2022-08-27T00:33:08.904Z,35.50
2022-08-27T00:34:08.902Z,34.60
2022-08-27T00:35:08.901Z,33.90
2022-08-27T00:36:08.897Z,35.60
2022-08-27T00:37:08.897Z,37.60
2022-08-27T00:38:09.162Z,35.40
2022-08-27T00:39:08.892Z,36.00
2022-08-27T00:40:08.928Z,35.70
2022-08-27T00:41:08.888Z,34.10
2022-08-27T00:42:08.884Z,32.70
2022-08-27T00:43:08.883Z,31.80
2022-08-27T00:44:08.881Z,31.90
2022-08-27T00:45:08.879Z,31.40
2022-08-27T00:46:08.903Z,32.40
2022-08-27T00:47:08.876Z,31.60
2022-08-27T00:48:09.077Z,30.60
2022-08-27T00:49:08.874Z,30.00
2022-08-27T00:50:08.876Z,30.30
2022-08-27T00:51:08.874Z,29.40
2022-08-27T00:52:08.865Z,29.00
2022-08-27T00:53:08.864Z,29.00
2022-08-27T00:54:08.858Z,30.00
2022-08-27T00:55:08.861Z,29.10
2022-08-27T00:56:08.859Z,29.20
2022-08-27T00:57:08.857Z,28.70
2022-08-27T00:58:09.127Z,28.30
2022-08-27T00:59:08.853Z,28.00
2022-08-27T01:00:08.853Z,27.90
2022-08-27T01:01:08.931Z,28.10
2022-08-27T01:02:08.914Z,26.50
2022-08-27T01:03:08.844Z,27.70
2022-08-27T01:04:08.842Z,28.00
2022-08-27T01:05:08.842Z,27.60
2022-08-27T01:06:08.840Z,26.90
2022-08-27T01:07:08.838Z,26.80
2022-08-27T01:08:09.023Z,27.20
2022-08-27T01:09:08.837Z,27.10
2022-08-27T01:10:08.834Z,28.10
2022-08-27T01:11:08.832Z,27.90
2022-08-27T01:12:08.829Z,27.10
2022-08-27T01:13:08.824Z,28.20
2022-08-27T01:14:08.822Z,29.10
2022-08-27T01:15:10.065Z,28.90
2022-08-27T01:16:08.922Z,29.40
2022-08-27T01:17:08.816Z,31.10
2022-08-27T01:18:09.033Z,32.00
2022-08-27T01:19:08.812Z,30.00
2022-08-27T01:20:08.810Z,31.20
2022-08-27T01:21:08.810Z,30.00
2022-08-27T01:22:08.807Z,29.40
2022-08-27T01:23:08.805Z,28.20
2022-08-27T01:24:08.804Z,27.10
2022-08-27T01:25:08.802Z,27.80
2022-08-27T01:26:08.801Z,27.00
2022-08-27T01:27:13.576Z,26.40
2022-08-27T01:28:08.998Z,25.90
2022-08-27T01:29:08.796Z,26.00
2022-08-27T01:30:08.790Z,25.80
2022-08-27T01:31:08.842Z,25.70
2022-08-27T01:32:08.788Z,26.10
2022-08-27T01:33:08.787Z,26.40
2022-08-27T01:34:08.788Z,27.40
2022-08-27T01:35:08.783Z,26.50
2022-08-27T01:36:08.780Z,24.90
2022-08-27T01:37:08.774Z,26.50
2022-08-27T01:38:12.028Z,26.10
2022-08-27T01:39:08.774Z,25.60
2022-08-27T01:40:08.819Z,25.40
2022-08-27T01:41:08.774Z,25.90
2022-08-27T01:42:08.768Z,25.60
2022-08-27T01:43:08.767Z,25.60
2022-08-27T01:44:08.770Z,25.50
2022-08-27T01:45:08.770Z,25.20
2022-08-27T01:46:08.763Z,25.70
2022-08-27T01:47:08.762Z,25.50
2022-08-27T01:48:08.873Z,25.50
2022-08-27T01:49:08.759Z,25.20
2022-08-27T01:50:08.757Z,24.50
2022-08-27T01:51:08.754Z,24.90
2022-08-27T01:52:08.751Z,25.70
2022-08-27T01:53:08.750Z,24.80
2022-08-27T01:54:08.744Z,24.80
2022-08-27T01:55:08.747Z,24.90
2022-08-27T01:56:08.744Z,24.80
2022-08-27T01:57:08.744Z,26.00
2022-08-27T01:58:08.840Z,26.30
2022-08-27T01:59:08.740Z,26.30
2022-08-27T02:00:08.737Z,25.50
2022-08-27T02:01:08.798Z,25.60
2022-08-27T02:02:08.777Z,26.50
2022-08-27T02:03:08.732Z,26.90
2022-08-27T02:04:08.730Z,27.10
2022-08-27T02:05:08.728Z,28.10
2022-08-27T02:06:08.727Z,26.90
2022-08-27T02:07:08.724Z,27.40
2022-08-27T02:08:08.816Z,28.60
2022-08-27T02:09:08.721Z,28.50
2022-08-27T02:10:08.719Z,27.40
2022-08-27T02:11:08.718Z,28.90
2022-08-27T02:12:08.716Z,29.50
2022-08-27T02:13:08.717Z,29.40
2022-08-27T02:14:12.904Z,29.30
2022-08-27T02:15:08.710Z,28.80
2022-08-27T02:16:08.740Z,29.00
2022-08-27T02:17:08.707Z,29.70
2022-08-27T02:18:08.802Z,29.00
2022-08-27T02:19:09.779Z,29.20
2022-08-27T02:20:08.701Z,29.50
2022-08-27T02:21:08.701Z,30.30
2022-08-27T02:22:08.698Z,30.90
2022-08-27T02:23:08.698Z,29.50
2022-08-27T02:24:08.695Z,30.20
2022-08-27T02:25:10.224Z,31.40
2022-08-27T02:26:08.691Z,32.10
2022-08-27T02:27:08.691Z,33.20
2022-08-27T02:28:08.739Z,32.90
2022-08-27T02:29:08.684Z,31.90
2022-08-27T02:30:08.686Z,31.50
2022-08-27T02:31:08.766Z,32.00
2022-08-27T02:32:17.754Z,32.30
2022-08-27T02:33:08.680Z,32.80
2022-08-27T02:34:08.678Z,34.40
2022-08-27T02:35:08.674Z,34.90
2022-08-27T02:36:08.672Z,34.70
2022-08-27T02:37:08.674Z,35.90
2022-08-27T02:38:08.740Z,34.60
2022-08-27T02:39:08.668Z,36.70
2022-08-27T02:40:17.377Z,37.30
2022-08-27T02:42:01.612Z,37.20
2022-08-27T02:43:01.594Z,37.50
2022-08-27T02:45:05.585Z,38.10
2022-08-27T02:46:05.675Z,40.30
2022-08-27T02:48:10.269Z,38.90
2022-08-27T02:49:10.059Z,40.50
2022-08-27T02:50:10.055Z,39.10
2022-08-27T02:51:10.051Z,39.90
2022-08-27T02:52:10.049Z,37.20
2022-08-27T02:53:10.049Z,39.10
2022-08-27T02:54:10.047Z,40.70
2022-08-27T02:55:10.045Z,43.50
2022-08-27T02:56:10.046Z,44.40
2022-08-27T02:57:10.040Z,43.50
2022-08-27T02:58:10.146Z,39.80
2022-08-27T02:59:10.038Z,41.70
2022-08-27T03:00:10.035Z,40.30
2022-08-27T03:01:13.599Z,41.30
2022-08-27T03:02:10.119Z,41.10
2022-08-27T03:03:10.034Z,42.10
2022-08-27T03:04:10.028Z,41.40
2022-08-27T03:05:10.022Z,41.40
2022-08-27T03:06:10.024Z,41.70
2022-08-27T03:07:13.576Z,41.70
2022-08-27T03:08:10.164Z,41.80
2022-08-27T03:09:10.021Z,42.00
2022-08-27T03:10:10.022Z,42.30
2022-08-27T03:11:10.017Z,43.60
2022-08-27T03:12:10.013Z,44.00
2022-08-27T03:13:10.014Z,44.00
2022-08-27T03:14:10.011Z,44.50
2022-08-27T03:15:10.021Z,44.60
2022-08-27T03:16:10.099Z,44.00
2022-08-27T03:17:10.003Z,43.70
2022-08-27T03:18:10.179Z,44.00
2022-08-27T03:19:09.999Z,44.50
2022-08-27T03:20:10.005Z,44.30
2022-08-27T03:21:09.999Z,45.70
2022-08-27T03:22:09.997Z,44.90
2022-08-27T03:23:09.997Z,44.50
2022-08-27T03:24:11.851Z,46.50
2022-08-27T03:25:09.991Z,47.30
2022-08-27T03:26:09.990Z,49.10
2022-08-27T03:27:09.986Z,47.90
2022-08-27T03:28:18.775Z,49.40
2022-08-27T03:29:09.983Z,51.00
2022-08-27T03:30:09.984Z,48.30
2022-08-27T03:31:10.110Z,48.10
2022-08-27T03:32:09.997Z,48.60
2022-08-27T03:33:09.980Z,47.60
2022-08-27T03:34:09.985Z,49.10
2022-08-27T03:35:09.978Z,45.90
2022-08-27T03:36:09.973Z,48.90
2022-08-27T03:37:09.970Z,47.00
2022-08-27T03:38:10.136Z,47.30
2022-08-27T03:39:09.983Z,47.50
2022-08-27T03:40:10.026Z,46.30
2022-08-27T03:41:09.962Z,47.20
2022-08-27T03:42:09.961Z,45.80
2022-08-27T03:43:09.959Z,46.30
2022-08-27T03:44:09.957Z,46.90
2022-08-27T03:45:09.954Z,47.10
2022-08-27T03:46:09.987Z,48.20
2022-08-27T03:47:09.956Z,48.60
2022-08-27T03:48:10.091Z,49.60
2022-08-27T03:49:09.948Z,49.10
2022-08-27T03:50:09.958Z,50.20
2022-08-27T03:51:09.943Z,49.80
2022-08-27T03:52:09.940Z,48.70
2022-08-27T03:53:09.940Z,48.50
2022-08-27T03:54:09.933Z,48.70
2022-08-27T03:55:09.938Z,49.00
2022-08-27T03:56:09.934Z,49.20
2022-08-27T03:57:09.932Z,50.50
2022-08-27T03:58:10.034Z,48.10
2022-08-27T03:59:09.926Z,50.50
2022-08-27T04:00:09.926Z,49.90
2022-08-27T04:01:09.930Z,47.70
2022-08-27T04:02:10.023Z,47.70
2022-08-27T04:03:09.957Z,48.90
2022-08-27T04:04:09.918Z,46.80
2022-08-27T04:05:09.915Z,48.30
2022-08-27T04:06:09.915Z,47.00
2022-08-27T04:07:09.912Z,47.90
2022-08-27T04:08:10.007Z,49.90
2022-08-27T04:09:09.912Z,48.00
2022-08-27T04:10:09.907Z,49.50
2022-08-27T04:11:09.903Z,49.70
2022-08-27T04:12:09.904Z,50.20
2022-08-27T04:13:09.898Z,50.00
2022-08-27T04:14:24.709Z,49.20
2022-08-27T04:15:09.893Z,49.70
2022-08-27T04:16:09.913Z,49.90
2022-08-27T04:17:09.889Z,49.30
2022-08-27T04:18:10.152Z,48.80
2022-08-27T04:19:09.890Z,48.70
2022-08-27T04:20:34.073Z,48.00
2022-08-27T04:21:09.883Z,46.80
2022-08-27T04:22:09.882Z,48.50
2022-08-27T04:23:09.879Z,47.20
2022-08-27T04:24:09.878Z,48.80
2022-08-27T04:25:09.981Z,48.90
2022-08-27T04:26:09.872Z,48.10
2022-08-27T04:27:09.870Z,46.60
2022-08-27T04:28:10.067Z,46.60
2022-08-27T04:29:09.871Z,47.50
2022-08-27T04:30:09.865Z,46.90
2022-08-27T04:31:12.846Z,47.30
2022-08-27T04:32:09.866Z,49.20
2022-08-27T04:33:09.859Z,48.10
2022-08-27T04:34:09.856Z,48.10
2022-08-27T04:35:09.855Z,47.90
2022-08-27T04:36:09.854Z,48.80
2022-08-27T04:37:09.850Z,47.70
2022-08-27T04:38:10.041Z,47.20
2022-08-27T04:39:09.840Z,48.60
2022-08-27T04:40:09.889Z,50.20
2022-08-27T04:41:09.842Z,49.00
2022-08-27T04:42:09.839Z,49.20
2022-08-27T04:43:09.838Z,48.40
2022-08-27T04:44:09.844Z,49.00
2022-08-27T04:45:09.833Z,48.00
2022-08-27T04:46:09.867Z,49.80
2022-08-27T04:47:09.834Z,50.10
2022-08-27T04:48:09.953Z,48.60
2022-08-27T04:49:10.536Z,49.40
2022-08-27T04:50:09.823Z,49.90
2022-08-27T04:51:09.819Z,48.10
2022-08-27T04:52:09.821Z,49.50
2022-08-27T04:53:09.816Z,47.50
2022-08-27T04:54:09.820Z,48.50
2022-08-27T04:55:09.813Z,49.00
2022-08-27T04:56:14.415Z,49.90
2022-08-27T04:57:09.810Z,51.10
2022-08-27T04:58:09.967Z,50.20
2022-08-27T04:59:09.808Z,49.20
2022-08-27T05:00:09.803Z,50.70
2022-08-27T05:01:09.821Z,50.50
2022-08-27T05:02:09.798Z,50.00
2022-08-27T05:03:09.794Z,49.90
2022-08-27T05:04:09.794Z,51.30
2022-08-27T05:05:13.032Z,49.40
2022-08-27T05:06:09.791Z,50.30
2022-08-27T05:07:09.788Z,49.30
2022-08-27T05:08:09.960Z,50.10
2022-08-27T05:09:09.783Z,49.90
2022-08-27T05:10:09.780Z,50.10
2022-08-27T05:11:09.778Z,47.20
2022-08-27T05:12:09.778Z,49.10
2022-08-27T05:13:09.772Z,49.20
2022-08-27T05:14:09.778Z,48.40
2022-08-27T05:15:09.771Z,48.80
2022-08-27T05:16:09.831Z,48.40
2022-08-27T05:17:09.774Z,49.30
2022-08-27T05:18:10.019Z,47.60
2022-08-27T05:19:09.758Z,46.50
2022-08-27T05:20:09.761Z,48.00
2022-08-27T05:21:12.645Z,49.20
2022-08-27T05:22:09.757Z,50.40
2022-08-27T05:23:09.754Z,50.10
2022-08-27T05:24:09.752Z,49.10
2022-08-27T05:25:09.750Z,47.10
2022-08-27T05:26:09.750Z,48.00
2022-08-27T05:27:09.852Z,48.00
2022-08-27T05:28:09.845Z,47.90
2022-08-27T05:29:09.743Z,47.40
2022-08-27T05:30:09.740Z,45.50
2022-08-27T05:31:09.813Z,45.80
2022-08-27T05:32:09.735Z,45.20
2022-08-27T05:33:09.733Z,45.20
2022-08-27T05:34:10.665Z,44.30
2022-08-27T05:35:13.927Z,43.50
2022-08-27T05:36:09.727Z,43.70
2022-08-27T05:37:09.731Z,40.90
2022-08-27T05:38:09.848Z,42.90
2022-08-27T05:39:09.722Z,41.10
2022-08-27T05:40:09.790Z,40.60
2022-08-27T05:41:09.717Z,41.20
2022-08-27T05:42:09.720Z,40.20
2022-08-27T05:43:09.723Z,41.50
2022-08-27T05:44:30.190Z,40.90
2022-08-27T05:45:09.709Z,41.50
2022-08-27T05:46:09.743Z,40.00
2022-08-27T05:47:09.703Z,39.90
2022-08-27T05:48:09.901Z,38.90
2022-08-27T05:49:09.701Z,38.20
2022-08-27T05:50:09.700Z,38.80
2022-08-27T05:51:09.698Z,38.30
2022-08-27T05:52:09.695Z,36.90
2022-08-27T05:53:09.696Z,32.80
2022-08-27T05:54:09.692Z,33.70
2022-08-27T05:55:09.684Z,33.50
2022-08-27T05:56:09.688Z,33.10
2022-08-27T05:57:09.691Z,31.00
2022-08-27T05:58:09.877Z,29.30
2022-08-27T05:59:09.680Z,30.10
2022-08-27T06:00:09.679Z,30.50
2022-08-27T06:01:10.510Z,29.20
2022-08-27T06:02:09.712Z,27.90
2022-08-27T06:03:09.673Z,27.80
2022-08-27T06:04:09.703Z,27.80
2022-08-27T06:05:09.743Z,27.70
2022-08-27T06:06:09.668Z,28.30
2022-08-27T06:07:09.662Z,28.00
2022-08-27T06:08:09.814Z,28.00
2022-08-27T06:09:09.660Z,26.20
2022-08-27T06:10:09.660Z,25.50
2022-08-27T06:11:09.655Z,26.10
2022-08-27T06:12:09.653Z,26.30
2022-08-27T06:13:09.655Z,25.70
2022-08-27T06:14:09.650Z,26.40
2022-08-27T06:15:09.647Z,25.40
2022-08-27T06:16:09.710Z,25.20
2022-08-27T06:17:09.640Z,24.10
2022-08-27T06:18:09.755Z,22.60
2022-08-27T06:19:09.639Z,22.60
2022-08-27T06:20:09.639Z,20.60
2022-08-27T06:21:09.633Z,19.60
2022-08-27T06:22:10.827Z,19.30
2022-08-27T06:23:09.631Z,21.10
2022-08-27T06:24:09.629Z,19.00
2022-08-27T06:25:09.627Z,18.80
2022-08-27T06:26:09.626Z,18.10
2022-08-27T06:27:09.622Z,18.10
2022-08-27T06:28:09.742Z,17.10
2022-08-27T06:29:09.618Z,17.30
2022-08-27T06:30:09.615Z,17.60
2022-08-27T06:31:09.639Z,16.30
2022-08-27T06:32:09.616Z,15.90
2022-08-27T06:33:09.612Z,16.80
2022-08-27T06:34:09.623Z,17.50
2022-08-27T06:35:09.608Z,16.70
2022-08-27T06:36:09.606Z,17.00
2022-08-27T06:37:09.606Z,16.60
2022-08-27T06:38:09.711Z,16.30
2022-08-27T06:39:09.598Z,15.70
2022-08-27T06:40:09.634Z,16.20
2022-08-27T06:41:16.421Z,15.20
2022-08-27T06:42:09.594Z,16.50
2022-08-27T06:43:09.596Z,17.20
2022-08-27T06:44:09.601Z,16.60
2022-08-27T06:45:09.591Z,17.30
2022-08-27T06:46:09.638Z,17.80
2022-08-27T06:47:09.586Z,18.20
2022-08-27T06:48:09.737Z,18.70
2022-08-27T06:49:09.580Z,19.00
2022-08-27T06:50:09.580Z,18.50
2022-08-27T06:51:09.576Z,18.70
2022-08-27T06:52:09.575Z,19.10
2022-08-27T06:53:09.573Z,18.70
2022-08-27T06:54:09.572Z,19.00
2022-08-27T06:55:09.566Z,18.80
2022-08-27T06:56:09.569Z,18.10
2022-08-27T06:57:09.566Z,18.10
2022-08-27T06:58:09.657Z,16.80
2022-08-27T06:59:11.483Z,16.10
2022-08-27T07:00:09.561Z,16.20
2022-08-27T07:01:09.611Z,17.20
2022-08-27T07:02:09.579Z,17.60
2022-08-27T07:03:09.551Z,17.60
2022-08-27T07:04:09.552Z,17.90
2022-08-27T07:05:09.552Z,18.00
2022-08-27T07:06:09.552Z,17.60
2022-08-27T07:07:09.547Z,18.30
2022-08-27T07:08:09.588Z,17.20
2022-08-27T07:09:09.550Z,17.20
2022-08-27T07:10:09.543Z,16.60
2022-08-27T07:11:09.540Z,16.60
2022-08-27T07:12:09.543Z,16.30
2022-08-27T07:13:09.536Z,15.90
2022-08-27T07:14:09.538Z,15.80
2022-08-27T07:15:09.534Z,16.20
2022-08-27T07:16:09.624Z,15.70
2022-08-27T07:17:11.000Z,14.90
2022-08-27T07:18:09.766Z,15.00
2022-08-27T07:19:09.534Z,15.10
2022-08-27T07:20:09.527Z,15.80
2022-08-27T07:21:09.522Z,16.70
2022-08-27T07:22:09.528Z,16.30
2022-08-27T07:23:11.131Z,16.60
2022-08-27T07:24:09.518Z,16.00
2022-08-27T07:25:09.519Z,16.40
2022-08-27T07:26:09.523Z,16.00
2022-08-27T07:27:09.510Z,16.00
2022-08-27T07:28:09.679Z,15.90
2022-08-27T07:29:09.508Z,15.90
2022-08-27T07:30:09.508Z,16.20
2022-08-27T07:31:09.553Z,16.00
2022-08-27T07:32:09.504Z,15.70
2022-08-27T07:33:09.502Z,14.40
2022-08-27T07:34:09.505Z,15.20
2022-08-27T07:35:09.502Z,15.30
2022-08-27T07:36:09.496Z,15.70
2022-08-27T07:37:09.496Z,15.10
2022-08-27T07:38:09.718Z,15.70
2022-08-27T07:39:09.492Z,14.50
2022-08-27T07:40:09.511Z,14.50
2022-08-27T07:41:09.489Z,15.00
2022-08-27T07:42:09.487Z,14.60
2022-08-27T07:43:09.487Z,14.80
2022-08-27T07:44:09.484Z,14.50
2022-08-27T07:45:09.481Z,14.20
2022-08-27T07:46:09.504Z,13.90
2022-08-27T07:47:09.477Z,13.70
2022-08-27T07:48:09.637Z,14.00
2022-08-27T07:49:09.477Z,14.40
2022-08-27T07:50:09.474Z,14.60
2022-08-27T07:51:09.471Z,15.00
2022-08-27T07:52:09.471Z,14.10
2022-08-27T07:53:09.471Z,13.30
2022-08-27T07:54:09.468Z,13.40
2022-08-27T07:55:09.465Z,13.10
2022-08-27T07:56:09.475Z,13.00
2022-08-27T07:57:09.464Z,13.00
2022-08-27T07:58:11.578Z,12.90
2022-08-27T07:59:09.460Z,12.30
2022-08-27T08:00:09.457Z,12.40
2022-08-27T08:01:09.488Z,12.30
2022-08-27T08:02:09.464Z,12.00
2022-08-27T08:03:09.451Z,12.20
2022-08-27T08:04:09.479Z,11.10
2022-08-27T08:05:09.445Z,11.70
2022-08-27T08:06:09.449Z,11.90
2022-08-27T08:07:09.449Z,11.30
2022-08-27T08:08:09.501Z,11.50
2022-08-27T08:09:10.653Z,11.90
2022-08-27T08:10:09.445Z,12.00
2022-08-27T08:11:09.441Z,11.90
2022-08-27T08:12:09.440Z,12.20
2022-08-27T08:13:09.442Z,12.30
2022-08-27T08:14:09.436Z,12.00
2022-08-27T08:15:09.432Z,12.40
2022-08-27T08:16:09.437Z,12.30
2022-08-27T08:17:10.367Z,12.30
2022-08-27T08:18:09.517Z,11.70
2022-08-27T08:19:09.453Z,11.40
2022-08-27T08:20:21.790Z,11.30
2022-08-27T08:21:09.427Z,11.50
2022-08-27T08:22:09.428Z,11.80
2022-08-27T08:23:09.913Z,12.30
2022-08-27T08:24:09.424Z,12.50
2022-08-27T08:25:12.928Z,12.80
2022-08-27T08:26:09.423Z,12.60
2022-08-27T08:27:09.417Z,11.40
2022-08-27T08:28:09.592Z,11.80
2022-08-27T08:29:09.417Z,10.50
2022-08-27T08:30:09.415Z,10.90
2022-08-27T08:31:09.478Z,10.80
2022-08-27T08:32:09.414Z,11.20
2022-08-27T08:33:09.420Z,10.70
2022-08-27T08:34:09.413Z,11.70
2022-08-27T08:35:09.410Z,11.80
2022-08-27T08:36:09.407Z,11.70
2022-08-27T08:37:09.406Z,11.30
2022-08-27T08:38:09.603Z,11.70
2022-08-27T08:39:09.403Z,11.00
2022-08-27T08:40:16.608Z,11.20
2022-08-27T08:42:13.399Z,10.60
2022-08-27T08:43:13.389Z,11.20
2022-08-27T08:45:17.880Z,11.10
2022-08-27T08:46:17.897Z,10.70
2022-08-27T08:47:17.873Z,10.40
2022-08-27T08:48:17.871Z,10.10
2022-08-27T08:49:17.870Z,10.60
2022-08-27T08:50:19.837Z,10.40
2022-08-27T08:51:17.869Z,9.90
2022-08-27T08:52:26.405Z,9.90
2022-08-27T08:53:17.865Z,9.30
2022-08-27T08:54:17.866Z,8.80
2022-08-27T08:55:17.864Z,9.00
2022-08-27T08:56:17.863Z,8.80
2022-08-27T08:57:18.706Z,8.40
2022-08-27T08:58:17.859Z,7.80
2022-08-27T08:59:17.863Z,8.10
2022-08-27T09:00:17.980Z,8.00
2022-08-27T09:01:17.875Z,7.60
2022-08-27T09:02:17.943Z,7.60
2022-08-27T09:03:17.855Z,7.50
2022-08-27T09:04:17.854Z,7.40
2022-08-27T09:05:17.850Z,7.30
2022-08-27T09:06:17.851Z,7.50
2022-08-27T09:07:17.851Z,7.20
2022-08-27T09:08:37.675Z,6.80
2022-08-27T09:09:18.354Z,7.10
2022-08-27T09:10:17.842Z,7.40
2022-08-27T09:11:17.848Z,6.90
2022-08-27T09:12:17.844Z,7.10
2022-08-27T09:13:17.844Z,7.30
2022-08-27T09:14:17.842Z,7.40
2022-08-27T09:15:17.844Z,7.70
2022-08-27T09:16:17.888Z,7.60
2022-08-27T09:17:17.838Z,7.60
2022-08-27T09:18:17.835Z,8.10
2022-08-27T09:19:17.839Z,7.20
2022-08-27T09:20:17.836Z,7.60
2022-08-27T09:21:17.835Z,7.20
2022-08-27T09:22:17.831Z,7.60
2022-08-27T09:23:17.841Z,7.50
2022-08-27T09:24:17.828Z,7.20
2022-08-27T09:25:20.848Z,7.20
2022-08-27T09:26:17.828Z,7.10
2022-08-27T09:27:17.827Z,7.40
2022-08-27T09:28:17.824Z,7.00
2022-08-27T09:29:17.817Z,7.30
2022-08-27T09:30:17.821Z,7.40
2022-08-27T09:31:17.877Z,7.00
2022-08-27T09:32:17.821Z,7.00
2022-08-27T09:33:17.818Z,7.30
2022-08-27T09:34:17.816Z,7.10
2022-08-27T09:35:17.818Z,7.20
2022-08-27T09:36:22.957Z,7.60
2022-08-27T09:37:17.812Z,7.70
2022-08-27T09:38:17.812Z,7.40
2022-08-27T09:39:17.812Z,7.90
2022-08-27T09:40:23.229Z,7.10
2022-08-27T09:41:17.809Z,6.90
2022-08-27T09:42:17.810Z,6.90
2022-08-27T09:43:17.809Z,7.00
2022-08-27T09:44:17.804Z,6.90
2022-08-27T09:45:17.804Z,6.90
2022-08-27T09:46:17.856Z,6.80
2022-08-27T09:47:17.802Z,7.00
2022-08-27T09:48:17.804Z,7.00
2022-08-27T09:49:17.800Z,6.80
2022-08-27T09:50:17.800Z,6.70
2022-08-27T09:51:19.253Z,6.90
2022-08-27T09:52:17.796Z,6.40
2022-08-27T09:53:17.795Z,6.70
2022-08-27T09:54:17.794Z,6.70
2022-08-27T09:55:17.794Z,6.50
2022-08-27T09:56:17.792Z,6.40
2022-08-27T09:57:17.791Z,6.10
2022-08-27T09:58:17.791Z,6.10
2022-08-27T09:59:17.791Z,5.70
2022-08-27T10:00:17.788Z,5.90
2022-08-27T10:01:17.826Z,5.80
2022-08-27T10:02:17.788Z,5.80
2022-08-27T10:03:17.792Z,5.70
2022-08-27T10:04:17.831Z,5.50
2022-08-27T10:05:17.786Z,5.70
2022-08-27T10:06:17.782Z,5.50
2022-08-27T10:07:17.785Z,5.70
2022-08-27T10:08:17.784Z,6.20
2022-08-27T10:09:17.783Z,6.20
2022-08-27T10:10:17.783Z,6.00
2022-08-27T10:11:17.783Z,5.60
2022-08-27T10:12:17.781Z,5.50
2022-08-27T10:13:17.781Z,5.60
2022-08-27T10:14:17.780Z,5.80
2022-08-27T10:15:17.780Z,6.00
2022-08-27T10:16:17.839Z,5.70
2022-08-27T10:17:17.779Z,5.90
2022-08-27T10:18:17.772Z,5.60
2022-08-27T10:19:17.775Z,5.30
2022-08-27T10:20:17.776Z,5.40
2022-08-27T10:21:17.775Z,5.40
2022-08-27T10:22:17.776Z,5.70
2022-08-27T10:23:17.778Z,5.70
2022-08-27T10:24:17.774Z,5.80
2022-08-27T10:25:17.775Z,5.80
2022-08-27T10:26:17.774Z,5.70
2022-08-27T10:27:17.775Z,5.40
2022-08-27T10:28:17.774Z,5.40
2022-08-27T10:29:17.774Z,5.30
2022-08-27T10:30:17.773Z,5.40
2022-08-27T10:31:17.855Z,5.50
2022-08-27T10:32:17.771Z,4.80
2022-08-27T10:33:22.806Z,5.30
2022-08-27T10:34:17.772Z,5.10
2022-08-27T10:35:17.777Z,4.70
2022-08-27T10:36:17.773Z,4.90
2022-08-27T10:37:17.774Z,5.10
2022-08-27T10:38:17.771Z,4.90
2022-08-27T10:39:17.770Z,5.80
2022-08-27T10:40:17.810Z,5.70
2022-08-27T10:41:17.773Z,5.10
2022-08-27T10:42:17.770Z,5.20
2022-08-27T10:43:17.769Z,5.30
2022-08-27T10:44:17.767Z,5.10
2022-08-27T10:45:30.958Z,4.70
2022-08-27T10:46:17.845Z,5.00
2022-08-27T10:47:17.767Z,4.90
2022-08-27T10:48:17.767Z,4.70
2022-08-27T10:49:21.449Z,4.30
2022-08-27T10:50:17.767Z,4.30
2022-08-27T10:51:17.767Z,3.90
2022-08-27T10:52:17.772Z,4.10
2022-08-27T10:53:17.766Z,4.40
2022-08-27T10:54:17.765Z,4.00
2022-08-27T10:55:17.764Z,4.10
2022-08-27T10:56:17.881Z,4.30
2022-08-27T10:57:28.943Z,3.80
2022-08-27T10:58:17.763Z,4.00
2022-08-27T10:59:17.764Z,4.30
2022-08-27T11:00:17.761Z,4.60
2022-08-27T11:01:17.799Z,4.30
2022-08-27T11:02:17.791Z,4.30
2022-08-27T11:03:17.762Z,3.70
2022-08-27T11:04:17.769Z,3.80
2022-08-27T11:05:17.763Z,3.80
2022-08-27T11:06:17.761Z,3.80
2022-08-27T11:07:17.761Z,4.00
2022-08-27T11:08:17.761Z,3.90
2022-08-27T11:09:17.762Z,3.90
2022-08-27T11:10:17.759Z,4.00
2022-08-27T11:12:03.375Z,3.30
2022-08-27T11:12:17.753Z,3.60
2022-08-27T11:13:17.765Z,3.50
2022-08-27T11:14:17.760Z,3.40
2022-08-27T11:15:17.759Z,3.30
2022-08-27T11:16:17.805Z,3.60
2022-08-27T11:17:17.761Z,3.40
2022-08-27T11:18:17.759Z,3.40
2022-08-27T11:19:17.759Z,3.20
2022-08-27T11:20:17.759Z,3.60
2022-08-27T11:21:17.758Z,3.20
2022-08-27T11:22:26.103Z,3.30
2022-08-27T11:23:17.761Z,3.30
2022-08-27T11:24:17.755Z,3.30
2022-08-27T11:25:17.761Z,3.50
2022-08-27T11:26:17.757Z,3.60
2022-08-27T11:27:17.755Z,3.50
2022-08-27T11:28:17.754Z,3.30
2022-08-27T11:29:17.755Z,3.10
2022-08-27T11:30:17.757Z,3.20
2022-08-27T11:31:17.781Z,3.10
2022-08-27T11:32:17.753Z,3.30
2022-08-27T11:33:17.753Z,3.30
2022-08-27T11:34:17.752Z,3.10
2022-08-27T11:35:17.756Z,3.20
2022-08-27T11:36:17.751Z,2.90
2022-08-27T11:37:17.754Z,3.20
2022-08-27T11:38:17.752Z,3.00
2022-08-27T11:39:17.750Z,3.20
2022-08-27T11:40:17.799Z,3.20
2022-08-27T11:41:17.750Z,3.20
2022-08-27T11:42:17.750Z,3.40
2022-08-27T11:43:17.751Z,3.50
2022-08-27T11:44:17.750Z,3.70
2022-08-27T11:45:17.746Z,3.40
2022-08-27T11:46:17.783Z,3.80
2022-08-27T11:47:17.751Z,3.60
2022-08-27T11:48:17.749Z,3.90
2022-08-27T11:49:17.749Z,4.10
2022-08-27T11:50:17.749Z,3.70
2022-08-27T11:51:18.960Z,4.00
2022-08-27T11:52:17.747Z,4.00
2022-08-27T11:53:17.746Z,4.20
2022-08-27T11:54:17.748Z,4.00
2022-08-27T11:55:17.747Z,4.60
2022-08-27T11:56:17.746Z,4.40
2022-08-27T11:57:17.742Z,4.40
2022-08-27T11:58:17.746Z,4.80
2022-08-27T11:59:17.747Z,5.10
2022-08-27T12:00:17.744Z,5.00
2022-08-27T12:01:17.755Z,5.00
2022-08-27T12:02:17.752Z,5.10
2022-08-27T12:03:17.825Z,4.90
2022-08-27T12:04:17.804Z,5.20
2022-08-27T12:05:17.743Z,5.10
2022-08-27T12:06:17.743Z,5.10
2022-08-27T12:07:17.742Z,5.30
2022-08-27T12:08:18.855Z,5.20
2022-08-27T12:09:17.741Z,5.10
2022-08-27T12:10:17.742Z,5.60
2022-08-27T12:11:17.742Z,5.30
2022-08-27T12:12:17.741Z,5.30
2022-08-27T12:13:17.740Z,5.30
2022-08-27T12:14:17.741Z,5.40
2022-08-27T12:15:17.741Z,5.40
2022-08-27T12:16:17.790Z,5.50
2022-08-27T12:17:17.742Z,5.30
2022-08-27T12:18:17.742Z,5.20
2022-08-27T12:19:17.739Z,4.90
2022-08-27T12:20:17.739Z,4.90
2022-08-27T12:21:17.739Z,5.20
2022-08-27T12:22:17.750Z,5.00
2022-08-27T12:23:17.739Z,4.70
2022-08-27T12:24:17.738Z,5.00
2022-08-27T12:25:17.740Z,5.20
2022-08-27T12:26:17.741Z,5.20
2022-08-27T12:27:17.739Z,5.20
2022-08-27T12:28:17.738Z,5.00
2022-08-27T12:29:17.738Z,5.00
2022-08-27T12:30:17.740Z,4.90
2022-08-27T12:31:17.775Z,4.90
2022-08-27T12:32:17.737Z,4.80
2022-08-27T12:33:17.738Z,4.60
2022-08-27T12:34:19.055Z,4.60
2022-08-27T12:35:17.737Z,4.50
2022-08-27T12:36:21.252Z,4.50
2022-08-27T12:37:17.738Z,4.60
2022-08-27T12:38:17.738Z,4.60
2022-08-27T12:39:17.737Z,4.60
2022-08-27T12:40:19.891Z,4.70
2022-08-27T12:41:19.625Z,4.50
2022-08-27T12:42:17.739Z,4.70
2022-08-27T12:43:17.737Z,4.60
2022-08-27T12:44:17.736Z,4.20
2022-08-27T12:45:17.737Z,4.60
2022-08-27T12:46:17.795Z,4.40
2022-08-27T12:47:17.735Z,4.30
2022-08-27T12:48:17.736Z,4.40
2022-08-27T12:49:37.909Z,4.00
2022-08-27T12:50:17.735Z,4.10
2022-08-27T12:51:17.738Z,4.50
2022-08-27T12:52:17.737Z,4.10
2022-08-27T12:53:17.736Z,4.00
2022-08-27T12:54:17.741Z,4.40
2022-08-27T12:55:17.738Z,4.30
2022-08-27T12:56:17.738Z,3.80
2022-08-27T12:57:17.736Z,4.00
2022-08-27T12:58:17.865Z,4.00
2022-08-27T12:59:17.738Z,3.70
2022-08-27T13:00:17.737Z,3.80
2022-08-27T13:01:17.847Z,3.90
2022-08-27T13:02:17.807Z,4.00
2022-08-27T13:03:17.736Z,4.00
2022-08-27T13:04:17.738Z,3.70
2022-08-27T13:05:17.740Z,3.90